Terminal Aerodrome Forecast
Issued by NWS

Home | Current Version | Previous Version | Text Only | Print | Product List | Glossary On
Versions: 1 2 3 4 5 6 7 8 9 10 11 12 13 14 15 16 17 18 19 20 21 22 23 24 25 26 27 28 29
000
FTUS43 KDLH 051204 AAA
TAFHYR
TAF AMD
KHYR 051204Z 0512/0612 VRB02KT 5SM BR FEW120
     FM051800 18010G18KT P6SM SCT050
     FM060200 17006KT P6SM SCT120
     FM060600 17005KT P6SM VCSH SCT035 SCT120 WS020/21035KT=

USA.gov is the U.S. government's official web portal to all federal, state and local government web resources and services.